KLEB/LEB METAR and TAF weather

Enter ICAO airport designator
Station Type Date Time Source
KLEB METAR 2022/01/25 04:53 UTC NOAA

KLEB 250453Z AUTO 00000KT 3SM -SN OVC024 M08/M11 A2982 RMK AO2 SLP113 P0000 T10781111 410391189


Station Type Date Time Source
KLEB Decoded METAR 2022/01/25 04:53 UTC NOAA

LEBANON MUNICIPAL AIRPORT, NH, United States (KLEB) 43-38N 072-18W 171M
Jan 24, 2022 - 11:53 PM EST / 2022.01.25 0453 UTC
Wind: Calm:0
Visibility: 3 mile(s):0
Sky conditions: overcast
Weather: light snow
Precipitation last hour: A trace
Temperature: 18.0 F (-7.8 C)
Dew Point: 12.0 F (-11.1 C)
Relative Humidity: 77%
Pressure (altimeter): 29.82 in. Hg (1009 hPa)
ob: KLEB 250453Z AUTO 00000KT 3SM -SN OVC024 M08/M11 A2982 RMK AO2 SLP113 P0000 T10781111 410391189
cycle: 5

Station Type Date Time Source
KLEB TAF 2022/01/25 04:24 UTC NOAA

TAF
AMD KLEB 250422Z 2504/2524 00000KT 2SM -SN BR OVC025
FM250600 00000KT 1SM -SN BR OVC015
FM250900 00000KT 4SM -SN BR OVC020
FM251400 VRB03KT P6SM BKN050

Example: see airport list